Time;durP1;ratioP1;P1;durP2;ratioP2;P2;SDS_P1;SDS_P2;PMS_P1;PMS_P2;Temp;Humidity;BMP_temperature;BMP_pressure;BME280_temperature;BME280_humidity;BME280_pressure;Samples;Min_cycle;Max_cycle;Signal;HPM_P1;HPM_P2
2022/11/25 00:00:26;;;;;;;23.40;17.93;;;7.50;99.90;;;;;;5055383;28;20192;-60
2022/11/25 00:02:52;;;;;;;24.53;18.53;;;7.50;99.90;;;;;;5065003;28;20270;-61
2022/11/25 00:05:17;;;;;;;21.40;17.67;;;7.50;99.90;;;;;;5052679;28;20611;-61
2022/11/25 00:07:43;;;;;;;23.07;15.93;;;7.50;99.90;;;;;;5051700;28;20206;-60
2022/11/25 00:10:09;;;;;;;21.30;18.13;;;7.50;99.90;;;;;;5058558;28;20218;-60
2022/11/25 00:12:34;;;;;;;19.63;15.47;;;7.60;99.90;;;;;;5057094;28;20243;-61
2022/11/25 00:15:00;;;;;;;26.00;16.40;;;;;;;;;;5063155;28;20231;-61
2022/11/25 00:17:26;;;;;;;16.53;13.97;;;7.60;99.90;;;;;;5058580;28;20184;-60
2022/11/25 00:19:52;;;;;;;19.23;15.20;;;7.50;99.90;;;;;;5054234;28;20430;-61
2022/11/25 00:22:17;;;;;;;17.37;13.60;;;7.40;99.90;;;;;;5056731;28;20261;-60
2022/11/25 00:24:43;;;;;;;22.10;14.80;;;7.50;99.90;;;;;;5058049;28;20229;-59
2022/11/25 00:27:08;;;;;;;18.47;13.97;;;7.50;99.90;;;;;;5063957;28;20713;-60
2022/11/25 00:29:34;;;;;;;19.30;13.07;;;7.50;99.90;;;;;;5051851;28;20199;-61
2022/11/25 00:32:00;;;;;;;19.33;12.87;;;7.50;99.90;;;;;;5051902;28;20249;-60
2022/11/25 00:34:26;;;;;;;19.80;13.80;;;7.60;99.90;;;;;;5058821;28;20432;-60
2022/11/25 00:36:52;;;;;;;20.00;12.77;;;7.70;99.90;;;;;;5066842;28;20195;-60
2022/11/25 00:39:18;;;;;;;17.90;12.80;;;7.60;99.90;;;;;;5047712;28;20259;-60
2022/11/25 00:44:39;;;;;;;17.30;12.03;;;7.60;99.90;;;;;;5052395;28;20456;-61
2022/11/25 00:47:04;;;;;;;17.07;10.90;;;7.70;99.90;;;;;;5053671;28;20498;-60
2022/11/25 00:49:31;;;;;;;15.47;11.40;;;7.70;97.20;;;;;;5033964;28;20427;-61
2022/11/25 00:51:56;;;;;;;17.93;12.30;;;7.70;91.70;;;;;;5058687;28;20198;-61
2022/11/25 00:54:22;;;;;;;13.20;11.20;;;7.70;83.60;;;;;;5053494;28;20925;-61
2022/11/25 00:56:48;;;;;;;17.40;11.67;;;7.60;91.50;;;;;;5053762;28;20207;-61
2022/11/25 00:59:14;;;;;;;17.97;11.50;;;7.60;94.10;;;;;;5053638;28;20422;-59
2022/11/25 01:01:40;;;;;;;16.67;11.90;;;7.50;94.60;;;;;;5043201;28;20438;-61
2022/11/25 01:04:06;;;;;;;20.47;12.00;;;7.50;98.60;;;;;;5045552;28;20190;-61
2022/11/25 01:06:33;;;;;;;16.57;12.60;;;7.50;99.90;;;;;;5062615;28;20191;-61
2022/11/25 01:08:58;;;;;;;17.03;11.60;;;7.60;99.90;;;;;;5051534;28;20962;-60
2022/11/25 01:11:24;;;;;;;15.43;12.23;;;7.50;99.90;;;;;;5073317;28;20509;-61
2022/11/25 01:13:53;;;;;;;16.47;10.40;;;7.50;97.70;;;;;;5062300;28;20219;-61
2022/11/25 01:16:20;;;;;;;11.53;10.30;;;7.40;92.40;;;;;;5060597;28;20837;-60
2022/11/25 01:18:46;;;;;;;16.73;11.97;;;7.30;89.50;;;;;;5062098;28;20519;-60
2022/11/25 01:21:32;;;;;;;13.40;9.40;;;7.20;94.10;;;;;;5065014;28;20497;-59
2022/11/25 01:24:00;;;;;;;11.53;10.33;;;7.00;93.90;;;;;;5063050;28;20477;-62
2022/11/25 01:26:26;;;;;;;14.57;11.00;;;7.00;99.90;;;;;;5071276;28;20430;-60
2022/11/25 01:29:15;;;;;;;12.40;10.00;;;6.90;99.90;;;;;;5057611;28;20449;-60
2022/11/25 01:31:42;;;;;;;17.40;11.30;;;6.80;99.90;;;;;;5053860;28;20554;-61
2022/11/25 01:34:17;;;;;;;12.43;10.60;;;6.80;99.90;;;;;;5050188;28;20432;-60
2022/11/25 01:36:43;;;;;;;18.20;12.63;;;6.70;99.90;;;;;;5048958;28;20437;-61
2022/11/25 01:39:17;;;;;;;11.50;10.03;;;6.80;99.90;;;;;;5062543;28;20458;-61
2022/11/25 01:41:43;;;;;;;16.00;11.10;;;6.80;99.90;;;;;;5061196;28;20433;-60
2022/11/25 01:44:14;;;;;;;15.47;11.20;;;6.80;99.90;;;;;;5050743;28;20455;-61
2022/11/25 01:47:11;;;;;;;14.43;10.83;;;6.80;99.90;;;;;;5051059;28;20935;-59
2022/11/25 01:49:43;;;;;;;15.30;10.13;;;6.90;99.90;;;;;;5053065;28;20427;-61
2022/11/25 01:52:14;;;;;;;12.17;9.60;;;7.00;99.90;;;;;;5054263;28;20440;-60
2022/11/25 01:54:53;;;;;;;15.90;10.30;;;7.10;99.90;;;;;;5054758;28;20457;-60
2022/11/25 01:57:44;;;;;;;18.17;10.90;;;7.20;99.90;;;;;;5053432;28;20834;-60
2022/11/25 02:00:10;;;;;;;13.30;10.27;;;7.20;99.90;;;;;;5048151;28;20935;-60
2022/11/25 02:02:36;;;;;;;11.10;9.47;;;7.30;99.90;;;;;;5052238;28;20445;-60
2022/11/25 02:05:06;;;;;;;13.23;9.23;;;7.30;99.90;;;;;;5054092;28;20849;-59
2022/11/25 02:07:36;;;;;;;12.43;9.50;;;7.30;99.90;;;;;;5054901;28;20182;-60
2022/11/25 02:10:09;;;;;;;11.53;9.53;;;7.40;99.90;;;;;;5060440;28;20926;-61
2022/11/25 02:12:38;;;;;;;12.60;9.10;;;7.50;99.90;;;;;;5046315;28;20521;-60
2022/11/25 02:15:04;;;;;;;13.07;8.50;;;7.50;99.90;;;;;;5049920;28;21058;-61
2022/11/25 02:17:30;;;;;;;11.27;7.90;;;7.50;99.90;;;;;;5052839;28;20424;-60
2022/11/25 02:20:03;;;;;;;13.30;9.23;;;7.50;99.90;;;;;;5045183;28;20443;-59
2022/11/25 02:22:51;;;;;;;9.57;8.30;;;7.50;99.90;;;;;;5054212;28;20285;-60
2022/11/25 02:25:27;;;;;;;13.13;9.47;;;7.50;92.60;;;;;;5062165;28;20983;-62
2022/11/25 02:28:04;;;;;;;12.23;9.40;;;7.50;78.10;;;;;;5053990;28;20427;-60
2022/11/25 02:30:29;;;;;;;15.67;10.10;;;7.50;66.00;;;;;;5056874;28;20489;-60
2022/11/25 02:32:57;;;;;;;13.10;9.33;;;7.50;58.60;;;;;;5061212;28;20459;-59
2022/11/25 02:35:26;;;;;;;14.67;9.37;;;7.40;53.70;;;;;;5054752;28;20214;-62
2022/11/25 02:37:55;;;;;;;11.30;9.03;;;7.40;58.50;;;;;;5063934;28;20421;-61
2022/11/25 02:40:22;;;;;;;11.03;9.17;;;7.40;59.20;;;;;;5048165;28;20932;-61
2022/11/25 02:42:49;;;;;;;13.47;9.77;;;7.40;61.10;;;;;;5040597;28;20400;-60
2022/11/25 02:45:19;;;;;;;14.03;9.60;;;7.40;52.50;;;;;;5057865;28;20446;-60
2022/11/25 02:47:45;;;;;;;13.87;10.07;;;7.40;47.40;;;;;;5059342;28;20436;-60
2022/11/25 02:50:12;;;;;;;13.13;9.23;;;7.40;48.70;;;;;;5056982;28;20424;-60
2022/11/25 02:52:38;;;;;;;12.37;8.47;;;7.40;48.50;;;;;;5066084;28;20186;-63
2022/11/25 02:55:05;;;;;;;13.23;9.07;;;7.40;45.10;;;;;;5046438;28;20472;-61
2022/11/25 02:57:30;;;;;;;13.80;8.80;;;7.40;49.30;;;;;;5053913;28;20428;-62
2022/11/25 02:59:56;;;;;;;11.10;8.83;;;7.40;43.90;;;;;;5055779;28;20450;-61
2022/11/25 03:02:21;;;;;;;10.73;8.23;;;7.40;46.40;;;;;;5058354;28;20191;-60
2022/11/25 03:04:47;;;;;;;11.67;9.27;;;7.40;43.70;;;;;;5062975;28;20226;-62
2022/11/25 03:07:12;;;;;;;13.80;10.07;;;7.40;42.40;;;;;;5063020;28;20276;-61
2022/11/25 03:09:38;;;;;;;10.70;8.80;;;7.40;42.00;;;;;;5059898;28;20177;-61
2022/11/25 03:12:19;;;;;;;12.57;9.53;;;7.40;42.90;;;;;;5062581;28;20689;-61
2022/11/25 03:14:44;;;;;;;13.03;9.17;;;7.40;38.40;;;;;;5062227;28;20246;-60
2022/11/25 03:17:10;;;;;;;10.30;8.97;;;7.40;29.80;;;;;;5060889;28;20469;-61
2022/11/25 03:19:36;;;;;;;10.60;7.67;;;7.40;28.50;;;;;;5049301;28;20238;-62
2022/11/25 03:22:01;;;;;;;10.93;8.63;;;7.40;32.10;;;;;;5052529;28;20191;-63
2022/11/25 03:24:27;;;;;;;13.27;8.80;;;7.30;29.50;;;;;;5060198;28;20183;-60
2022/11/25 03:26:53;;;;;;;13.30;8.80;;;7.30;31.20;;;;;;5059903;28;20429;-60
2022/11/25 03:29:19;;;;;;;8.90;8.07;;;7.40;30.60;;;;;;5048990;28;20630;-61
2022/11/25 03:31:45;;;;;;;11.77;9.20;;;7.40;20.90;;;;;;5053900;28;20195;-62
2022/11/25 03:34:11;;;;;;;10.33;8.03;;;7.30;21.60;;;;;;5050261;28;20275;-61
2022/11/25 03:36:36;;;;;;;11.77;8.53;;;7.40;20.10;;;;;;5050771;28;20532;-60
2022/11/25 03:39:02;;;;;;;11.67;9.47;;;7.30;20.60;;;;;;5062456;28;20859;-61
2022/11/25 03:41:28;;;;;;;11.10;8.40;;;7.30;16.10;;;;;;5056902;28;20195;-60
2022/11/25 03:43:54;;;;;;;12.10;8.57;;;7.30;13.80;;;;;;5049151;28;20461;-60
2022/11/25 03:46:20;;;;;;;13.17;8.10;;;7.20;16.90;;;;;;5056724;28;20199;-61
2022/11/25 03:48:45;;;;;;;10.97;8.93;;;7.20;24.40;;;;;;5045378;28;20194;-62
2022/11/25 03:51:11;;;;;;;14.23;8.97;;;7.30;25.60;;;;;;5045216;28;20668;-60
2022/11/25 03:53:36;;;;;;;11.60;9.07;;;7.30;22.30;;;;;;5064968;28;20230;-61
2022/11/25 03:56:02;;;;;;;11.90;8.80;;;7.30;20.00;;;;;;5056909;28;20291;-61
2022/11/25 03:58:28;;;;;;;10.70;7.87;;;;;;;;;;5050826;28;20206;-60
2022/11/25 04:00:54;;;;;;;10.53;8.70;;;;;;;;;;5063164;28;20708;-61
2022/11/25 04:03:20;;;;;;;10.53;8.50;;;7.30;19.60;;;;;;5036969;28;20436;-59
2022/11/25 04:05:45;;;;;;;9.73;8.10;;;7.40;14.50;;;;;;5047856;28;20416;-60
2022/11/25 04:08:11;;;;;;;11.90;9.00;;;7.30;16.00;;;;;;5063348;28;20637;-62
2022/11/25 04:10:37;;;;;;;12.93;9.47;;;7.40;14.40;;;;;;5062370;28;20190;-62
2022/11/25 04:13:03;;;;;;;13.30;10.27;;;7.40;10.50;;;;;;5060519;28;20482;-62
2022/11/25 04:15:28;;;;;;;14.27;8.33;;;7.40;14.40;;;;;;5051852;28;20215;-60
2022/11/25 04:17:54;;;;;;;12.40;8.93;;;7.40;1.00;;;;;;5055662;28;20249;-62
2022/11/25 04:20:19;;;;;;;11.80;8.90;;;7.40;1.90;;;;;;5065556;28;20186;-62
2022/11/25 04:22:45;;;;;;;14.30;9.60;;;7.40;3.30;;;;;;5066352;28;20205;-63
2022/11/25 04:25:11;;;;;;;17.10;9.17;;;7.40;2.90;;;;;;5057847;28;20199;-62
2022/11/25 04:27:36;;;;;;;12.63;9.13;;;7.40;6.20;;;;;;5070008;28;20191;-60
2022/11/25 04:30:03;;;;;;;9.80;8.10;;;7.30;8.20;;;;;;5061512;28;20194;-61
2022/11/25 04:32:28;;;;;;;14.90;10.10;;;7.40;7.70;;;;;;5057928;28;20189;-60
2022/11/25 04:34:54;;;;;;;12.67;8.80;;;7.40;5.30;;;;;;5050038;28;20574;-61
2022/11/25 04:37:20;;;;;;;12.77;9.80;;;7.30;10.10;;;;;;5047789;28;20200;-60
2022/11/25 04:39:46;;;;;;;11.47;9.20;;;7.40;12.20;;;;;;5053843;28;20182;-60
2022/11/25 04:44:56;;;;;;;14.60;9.17;;;7.40;4.70;;;;;;5055421;28;20205;-60
2022/11/25 04:47:22;;;;;;;12.57;9.60;;;7.50;2.30;;;;;;5068126;28;20503;-60
2022/11/25 04:49:48;;;;;;;12.00;9.33;;;7.50;1.00;;;;;;5057362;28;20741;-61
2022/11/25 04:52:14;;;;;;;11.10;8.80;;;;;;;;;;5074016;28;20436;-61
2022/11/25 04:54:39;;;;;;;14.93;10.50;;;7.20;10.10;;;;;;5064754;28;20444;-60
2022/11/25 04:57:05;;;;;;;11.83;9.73;;;7.20;13.20;;;;;;5061455;28;20843;-62
2022/11/25 04:59:40;;;;;;;13.07;8.97;;;7.20;13.00;;;;;;5059992;28;20187;-60
2022/11/25 05:02:19;;;;;;;11.80;9.40;;;7.20;14.30;;;;;;5056799;28;20192;-61
2022/11/25 05:04:46;;;;;;;14.20;9.77;;;7.20;12.60;;;;;;5067447;28;20475;-60
2022/11/25 05:07:13;;;;;;;13.03;10.10;;;7.20;13.80;;;;;;5071920;28;20473;-60
2022/11/25 05:09:39;;;;;;;17.63;9.90;;;7.10;13.40;;;;;;5060261;28;20427;-61
2022/11/25 05:12:06;;;;;;;14.30;9.00;;;7.10;15.90;;;;;;5067355;28;20418;-61
2022/11/25 05:14:34;;;;;;;13.33;9.47;;;7.10;15.10;;;;;;5052158;28;20286;-61
2022/11/25 05:17:01;;;;;;;10.23;8.47;;;6.90;17.80;;;;;;5052225;28;20529;-62
2022/11/25 05:19:26;;;;;;;13.63;9.33;;;6.70;23.60;;;;;;5063207;28;20419;-60
2022/11/25 05:21:52;;;;;;;11.17;9.90;;;6.70;32.30;;;;;;5060094;28;20447;-60
2022/11/25 05:24:18;;;;;;;12.03;8.90;;;6.60;29.60;;;;;;5069681;28;20536;-60
2022/11/25 05:26:43;;;;;;;13.20;8.80;;;6.60;56.90;;;;;;5061914;28;20211;-62
2022/11/25 05:29:09;;;;;;;10.77;8.10;;;6.50;59.70;;;;;;5054973;28;20445;-60
2022/11/25 05:31:35;;;;;;;13.47;9.00;;;6.40;67.60;;;;;;5054530;28;20183;-60
2022/11/25 05:34:01;;;;;;;16.87;8.97;;;6.40;89.30;;;;;;5054024;28;20202;-60
2022/11/25 05:36:27;;;;;;;10.50;8.33;;;6.30;97.40;;;;;;5054634;28;20598;-60
2022/11/25 05:38:54;;;;;;;14.27;8.50;;;6.20;99.90;;;;;;5065854;28;20435;-62
2022/11/25 05:41:20;;;;;;;9.73;8.40;;;6.20;99.90;;;;;;5065939;28;20262;-62
2022/11/25 05:43:46;;;;;;;12.90;9.23;;;6.10;99.90;;;;;;5073242;28;20507;-62
2022/11/25 05:46:12;;;;;;;13.80;10.17;;;6.10;99.90;;;;;;5072374;28;20277;-61
2022/11/25 05:48:38;;;;;;;11.77;9.10;;;6.10;99.90;;;;;;5065854;28;20454;-60
2022/11/25 05:51:04;;;;;;;14.13;9.57;;;6.00;99.90;;;;;;5068609;28;20433;-62
2022/11/25 05:53:30;;;;;;;11.80;9.00;;;6.00;99.90;;;;;;5071148;28;20273;-62
2022/11/25 05:55:58;;;;;;;14.07;9.47;;;6.00;99.90;;;;;;5052976;28;20828;-62
2022/11/25 05:58:25;;;;;;;17.67;9.87;;;;;;;;;;5059711;28;20406;-61
2022/11/25 06:00:51;;;;;;;14.93;10.77;;;6.10;99.90;;;;;;5032988;28;20979;-60
2022/11/25 06:03:17;;;;;;;12.20;9.50;;;6.00;99.90;;;;;;5052566;28;20436;-61
2022/11/25 06:05:43;;;;;;;12.20;10.37;;;6.00;99.90;;;;;;5052562;28;20782;-60
2022/11/25 06:08:08;;;;;;;15.63;10.07;;;6.00;99.90;;;;;;5051187;28;20445;-60
2022/11/25 06:10:39;;;;;;;10.47;9.27;;;6.00;99.90;;;;;;5054555;28;20431;-62
2022/11/25 06:13:05;;;;;;;14.80;10.20;;;5.90;99.90;;;;;;5056600;28;20247;-61
2022/11/25 06:15:31;;;;;;;11.43;8.87;;;5.90;99.90;;;;;;5055827;28;20469;-62
2022/11/25 06:17:56;;;;;;;14.83;10.80;;;5.90;99.90;;;;;;5054005;28;20419;-60
2022/11/25 06:20:22;;;;;;;17.77;10.00;;;5.80;99.90;;;;;;5053591;28;20186;-61
2022/11/25 06:22:47;;;;;;;14.87;9.97;;;5.80;99.90;;;;;;5055628;28;20646;-62
2022/11/25 06:25:13;;;;;;;14.67;10.57;;;5.80;99.90;;;;;;5063292;28;20630;-61
2022/11/25 06:27:39;;;;;;;16.23;10.87;;;5.80;99.90;;;;;;5065355;28;20190;-60
2022/11/25 06:30:06;;;;;;;13.70;9.80;;;5.70;99.90;;;;;;5052707;28;20221;-63
2022/11/25 06:32:32;;;;;;;12.50;9.97;;;5.70;99.90;;;;;;5056728;28;20240;-59
2022/11/25 06:34:57;;;;;;;13.33;11.17;;;5.80;99.90;;;;;;5053965;28;20437;-61
2022/11/25 06:37:23;;;;;;;15.43;11.37;;;;;;;;;;5061957;28;20182;-59
2022/11/25 06:39:49;;;;;;;16.13;10.60;;;5.90;99.90;;;;;;5063316;28;20200;-58
2022/11/25 06:42:14;;;;;;;16.90;10.50;;;5.70;99.90;;;;;;5056819;28;20495;-58
2022/11/25 06:44:40;;;;;;;9.97;8.67;;;5.60;99.90;;;;;;5057267;28;20279;-59
2022/11/25 06:47:06;;;;;;;14.30;10.33;;;5.70;99.90;;;;;;5053250;28;20279;-57
2022/11/25 06:49:31;;;;;;;15.60;10.03;;;5.80;99.90;;;;;;5061133;28;20194;-57
2022/11/25 06:51:57;;;;;;;20.27;11.20;;;5.70;99.00;;;;;;5058553;28;20194;-59
2022/11/25 06:54:23;;;;;;;16.67;10.67;;;5.60;98.50;;;;;;5059563;28;20238;-59
2022/11/25 06:56:52;;;;;;;24.13;9.90;;;5.70;99.90;;;;;;5056734;28;20675;-58
2022/11/25 06:59:19;;;;;;;13.77;10.63;;;5.80;96.80;;;;;;5059694;28;20320;-58
2022/11/25 07:01:45;;;;;;;15.23;10.83;;;5.80;91.30;;;;;;5042961;28;20442;-59
2022/11/25 07:04:11;;;;;;;14.13;9.60;;;5.80;80.40;;;;;;5054794;28;20530;-58
2022/11/25 07:06:36;;;;;;;15.10;10.10;;;5.70;70.30;;;;;;5060595;28;20509;-57
2022/11/25 07:09:03;;;;;;;12.83;9.80;;;5.70;64.00;;;;;;5053645;28;20199;-58
2022/11/25 07:11:31;;;;;;;15.60;10.43;;;5.60;70.40;;;;;;5054276;28;20198;-60
2022/11/25 07:13:59;;;;;;;18.43;10.90;;;5.60;68.00;;;;;;5058370;28;20478;-57
2022/11/25 07:16:25;;;;;;;14.10;11.27;;;5.70;70.30;;;;;;5063233;28;21023;-58
2022/11/25 07:18:51;;;;;;;12.63;11.20;;;5.80;63.50;;;;;;5065117;28;20989;-59
2022/11/25 07:21:19;;;;;;;15.60;11.60;;;5.80;59.90;;;;;;5061256;28;20874;-57
2022/11/25 07:23:46;;;;;;;16.43;11.17;;;5.80;54.90;;;;;;5059477;28;20738;-57
2022/11/25 07:26:23;;;;;;;16.63;11.17;;;5.80;54.60;;;;;;5060662;28;20465;-59
2022/11/25 07:28:50;;;;;;;15.70;10.67;;;5.80;58.40;;;;;;5055273;28;20476;-57
2022/11/25 07:31:25;;;;;;;15.23;10.90;;;5.80;53.40;;;;;;5056516;28;20420;-58
2022/11/25 07:33:52;;;;;;;15.70;11.23;;;5.90;47.40;;;;;;5060647;28;20510;-59
2022/11/25 07:36:18;;;;;;;15.40;10.50;;;5.90;37.70;;;;;;5055479;28;20475;-59
2022/11/25 07:38:44;;;;;;;15.87;11.20;;;;;;;;;;5064347;28;20913;-58
2022/11/25 07:41:15;;;;;;;15.57;11.70;;;5.80;36.20;;;;;;5055661;28;20518;-61
2022/11/25 07:43:44;;;;;;;14.00;10.03;;;5.90;34.00;;;;;;5053550;28;20969;-58
2022/11/25 07:46:17;;;;;;;14.97;11.13;;;6.00;22.70;;;;;;5063121;28;20605;-59
2022/11/25 07:48:44;;;;;;;16.13;11.20;;;6.10;15.70;;;;;;5056678;28;20969;-59
2022/11/25 07:51:38;;;;;;;19.20;11.90;;;6.10;3.80;;;;;;5062069;28;20543;-60
2022/11/25 07:54:06;;;;;;;14.07;10.47;;;6.20;1.90;;;;;;5044877;28;20461;-59
2022/11/25 07:56:37;;;;;;;18.60;12.97;;;6.20;1.00;;;;;;5054561;28;20502;-59
2022/11/25 07:59:04;;;;;;;14.73;11.13;;;6.20;1.00;;;;;;5052166;28;20450;-61
2022/11/25 08:01:29;;;;;;;17.10;10.37;;;6.30;1.00;;;;;;5048738;28;20456;-60
2022/11/25 08:03:55;;;;;;;15.10;10.30;;;6.30;1.00;;;;;;5054254;28;20453;-60
2022/11/25 08:06:23;;;;;;;14.83;11.00;;;6.30;1.00;;;;;;5049046;28;20672;-60
2022/11/25 08:08:53;;;;;;;15.57;11.50;;;6.30;1.00;;;;;;5052607;28;20428;-61
2022/11/25 08:11:22;;;;;;;13.53;10.30;;;6.40;1.00;;;;;;5040117;28;20441;-60
2022/11/25 08:13:48;;;;;;;12.90;10.13;;;6.40;1.00;;;;;;5050069;28;20450;-59
2022/11/25 08:16:16;;;;;;;15.60;10.80;;;6.40;1.00;;;;;;5046583;28;20484;-59
2022/11/25 08:18:42;;;;;;;13.10;10.07;;;6.40;1.00;;;;;;5051267;28;20187;-60
2022/11/25 08:21:09;;;;;;;13.50;10.10;;;6.40;1.00;;;;;;5054576;28;20503;-60
2022/11/25 08:23:37;;;;;;;15.63;11.60;;;6.40;1.00;;;;;;5054631;28;20185;-61
2022/11/25 08:26:09;;;;;;;15.23;10.53;;;6.40;1.00;;;;;;5054333;28;20527;-59
2022/11/25 08:28:35;;;;;;;12.77;9.67;;;6.40;1.00;;;;;;5048229;28;20431;-60
2022/11/25 08:31:06;;;;;;;16.57;11.23;;;6.40;1.00;;;;;;5050741;28;20886;-60
2022/11/25 08:33:32;;;;;;;15.70;11.47;;;6.50;1.00;;;;;;5051680;28;20453;-62
2022/11/25 08:35:58;;;;;;;18.17;11.63;;;6.50;1.00;;;;;;5055967;28;20491;-62
2022/11/25 08:38:24;;;;;;;18.30;11.97;;;;;;;;;;5050837;28;20195;-61
2022/11/25 08:40:50;;;;;;;16.97;10.00;;;6.60;1.00;;;;;;5056359;28;20412;-61
2022/11/25 08:43:17;;;;;;;15.27;11.47;;;6.60;1.00;;;;;;5059339;28;20935;-61
2022/11/25 08:45:42;;;;;;;15.27;10.83;;;6.60;1.00;;;;;;5056581;28;20677;-63
2022/11/25 08:48:08;;;;;;;14.47;11.57;;;6.60;1.00;;;;;;5050380;28;20431;-64
2022/11/25 08:50:34;;;;;;;16.23;11.40;;;6.60;1.00;;;;;;5049553;28;20222;-63
2022/11/25 08:53:00;;;;;;;19.27;11.87;;;6.70;1.00;;;;;;5048883;28;20194;-64
2022/11/25 08:55:27;;;;;;;18.30;11.70;;;6.70;1.00;;;;;;5048452;28;20210;-63
2022/11/25 08:57:53;;;;;;;16.20;10.43;;;6.80;1.00;;;;;;5048984;28;20464;-63
2022/11/25 09:00:20;;;;;;;18.67;11.60;;;6.80;1.00;;;;;;5039200;28;20420;-64
2022/11/25 09:02:46;;;;;;;16.73;12.47;;;6.80;1.00;;;;;;5045507;28;20420;-64
2022/11/25 09:05:14;;;;;;;13.33;11.50;;;6.80;1.00;;;;;;5047675;28;20964;-62
2022/11/25 09:07:40;;;;;;;17.10;11.60;;;6.90;1.00;;;;;;5044622;28;20435;-63
2022/11/25 09:10:08;;;;;;;23.20;11.20;;;7.10;1.00;;;;;;5040186;28;20933;-63
2022/11/25 09:12:34;;;;;;;14.73;10.37;;;7.50;1.00;;;;;;5045588;28;21810;-63
2022/11/25 09:15:00;;;;;;;12.57;10.10;;;8.00;1.00;;;;;;5039907;28;20501;-63
2022/11/25 09:17:26;;;;;;;13.50;10.20;;;;;;;;;;5060979;28;20193;-63
2022/11/25 09:19:53;;;;;;;14.40;10.17;;;8.30;1.00;;;;;;5043401;28;20608;-62
2022/11/25 09:22:18;;;;;;;17.10;10.30;;;8.20;1.00;;;;;;5048125;28;20992;-64
2022/11/25 09:24:45;;;;;;;13.37;10.40;;;8.00;1.00;;;;;;5052104;28;20428;-66
2022/11/25 09:27:11;;;;;;;13.03;10.57;;;;;;;;;;5054414;28;20192;-63
2022/11/25 09:29:36;;;;;;;14.13;10.80;;;7.90;1.00;;;;;;5047828;28;20837;-62
2022/11/25 09:32:02;;;;;;;12.33;9.60;;;;;;;;;;5044744;28;20441;-63
2022/11/25 09:34:28;;;;;;;15.43;10.07;;;8.60;1.00;;;;;;5049057;28;20190;-64
2022/11/25 09:36:54;;;;;;;11.77;10.17;;;8.80;1.00;;;;;;5046734;28;20458;-64
2022/11/25 09:39:19;;;;;;;10.93;9.17;;;8.80;1.00;;;;;;5049045;28;20592;-65
2022/11/25 09:48:07;;;;;;;12.20;9.30;;;8.60;1.00;;;;;;5046839;28;21388;-63
2022/11/25 09:51:10;;;;;;;13.83;9.30;;;8.50;1.00;;;;;;5051554;28;20452;-62
2022/11/25 09:53:53;;;;;;;13.40;9.77;;;8.60;1.00;;;;;;5047495;28;20468;-63
2022/11/25 09:56:23;;;;;;;11.57;9.00;;;8.60;1.00;;;;;;5049026;28;20804;-64
2022/11/25 09:58:55;;;;;;;13.93;10.47;;;8.60;1.00;;;;;;5040602;28;20537;-64
2022/11/25 10:01:24;;;;;;;12.00;9.03;;;8.60;1.00;;;;;;5053733;28;21058;-63
2022/11/25 10:03:59;;;;;;;11.60;9.23;;;8.50;1.00;;;;;;5054609;28;20473;-63
2022/11/25 10:06:28;;;;;;;14.07;10.20;;;8.50;1.00;;;;;;5045572;28;20428;-62
2022/11/25 10:09:01;;;;;;;14.70;9.90;;;8.60;1.00;;;;;;5042365;28;20975;-62
2022/11/25 10:11:50;;;;;;;11.43;9.40;;;8.60;1.00;;;;;;5042854;28;20459;-63
2022/11/25 10:14:31;;;;;;;11.33;9.53;;;8.70;1.00;;;;;;5050547;28;20496;-63
2022/11/25 10:17:08;;;;;;;13.50;9.17;;;8.80;1.00;;;;;;5042339;28;20612;-62
2022/11/25 10:20:02;;;;;;;11.83;9.33;;;8.70;1.00;;;;;;5035894;28;20429;-63
2022/11/25 10:22:32;;;;;;;10.83;8.70;;;8.80;1.00;;;;;;5045790;28;20429;-62
2022/11/25 10:25:05;;;;;;;12.27;9.70;;;8.90;1.00;;;;;;5039474;28;20435;-64
2022/11/25 10:28:01;;;;;;;13.20;9.57;;;9.00;1.00;;;;;;5052410;28;20473;-65
2022/11/25 10:30:49;;;;;;;10.90;9.00;;;9.10;1.00;;;;;;5046996;28;20443;-66
2022/11/25 10:33:34;;;;;;;10.27;7.90;;;9.10;1.00;;;;;;5052237;28;20555;-64
2022/11/25 10:36:18;;;;;;;11.40;8.70;;;9.20;1.00;;;;;;5042912;28;20809;-65
2022/11/25 10:38:57;;;;;;;14.80;9.90;;;9.20;1.00;;;;;;5043299;28;20432;-64
2022/11/25 10:41:26;;;;;;;14.60;10.00;;;9.30;1.00;;;;;;5040507;28;20443;-64
2022/11/25 10:43:51;;;;;;;10.23;7.67;;;9.40;1.00;;;;;;5042698;28;20431;-63
2022/11/25 10:46:43;;;;;;;9.13;8.07;;;9.50;1.00;;;;;;5041476;28;20454;-66
2022/11/25 10:49:37;;;;;;;12.10;8.70;;;9.60;1.00;;;;;;5058301;28;20263;-62
2022/11/25 10:52:12;;;;;;;9.63;8.27;;;9.70;1.00;;;;;;5048273;28;20443;-61
2022/11/25 10:54:37;;;;;;;9.43;7.57;;;9.80;1.00;;;;;;5044789;28;20455;-64
2022/11/25 10:57:17;;;;;;;13.07;9.03;;;9.90;1.00;;;;;;5049237;28;20789;-64
2022/11/25 10:59:54;;;;;;;10.13;7.90;;;10.10;1.00;;;;;;5046031;28;20276;-63
2022/11/25 11:02:29;;;;;;;13.93;7.50;;;10.10;1.00;;;;;;5050147;28;20421;-62
2022/11/25 11:05:07;;;;;;;9.63;7.80;;;10.20;1.00;;;;;;5044617;28;20455;-62
2022/11/25 11:07:35;;;;;;;9.83;7.43;;;10.30;1.00;;;;;;5050549;28;20462;-60
2022/11/25 11:10:13;;;;;;;11.83;8.23;;;10.30;1.00;;;;;;5046119;28;20430;-63
2022/11/25 11:13:19;;;;;;;12.43;8.70;;;10.40;1.00;;;;;;5048676;28;20425;-64
2022/11/25 11:15:46;;;;;;;10.10;7.80;;;10.50;1.00;;;;;;5046119;28;20467;-62
2022/11/25 11:18:18;;;;;;;11.20;7.87;;;10.50;1.00;;;;;;5046427;28;20453;-63
2022/11/25 11:20:50;;;;;;;9.77;7.40;;;10.70;1.00;;;;;;5049811;28;20414;-63
2022/11/25 11:23:16;;;;;;;9.90;6.60;;;10.80;1.00;;;;;;5044544;28;20509;-63
2022/11/25 11:26:03;;;;;;;13.03;8.90;;;10.80;1.00;;;;;;5050019;28;20459;-63
2022/11/25 11:28:38;;;;;;;11.13;7.47;;;10.80;1.00;;;;;;5039298;28;20448;-63
2022/11/25 11:31:25;;;;;;;11.00;7.57;;;10.80;1.00;;;;;;5046377;28;20453;-64
2022/11/25 11:34:07;;;;;;;8.87;6.93;;;10.90;1.00;;;;;;5049504;28;20454;-65
2022/11/25 11:36:47;;;;;;;11.70;8.47;;;11.00;1.00;;;;;;5046545;28;20473;-64
2022/11/25 11:39:43;;;;;;;11.20;7.67;;;10.90;1.00;;;;;;5048130;28;20507;-66
2022/11/25 11:42:31;;;;;;;10.90;7.90;;;11.10;1.00;;;;;;5047070;28;20910;-64
2022/11/25 11:45:28;;;;;;;8.80;7.30;;;11.20;1.00;;;;;;5049092;28;20508;-64
2022/11/25 11:48:44;;;;;;;8.80;7.07;;;11.20;1.00;;;;;;5047974;28;20449;-63
2022/11/25 11:51:28;;;;;;;10.93;8.17;;;11.20;1.00;;;;;;5024168;28;20439;-64
2022/11/25 11:54:11;;;;;;;10.33;7.47;;;11.20;1.00;;;;;;5044197;28;20779;-64
2022/11/25 11:56:46;;;;;;;12.20;8.90;;;11.20;1.00;;;;;;5047607;28;20468;-64
2022/11/25 11:59:20;;;;;;;10.80;8.07;;;11.30;1.00;;;;;;5048143;28;20493;-64
2022/11/25 12:02:01;;;;;;;10.33;7.10;;;11.30;1.00;;;;;;5049307;28;20488;-64
2022/11/25 12:04:51;;;;;;;9.33;7.37;;;11.30;1.00;;;;;;5046495;28;20445;-64
2022/11/25 12:07:28;;;;;;;10.70;7.73;;;11.30;1.00;;;;;;5044992;28;20583;-65
2022/11/25 12:09:56;;;;;;;10.70;7.83;;;11.30;1.00;;;;;;5050066;28;20433;-64
2022/11/25 12:12:34;;;;;;;7.07;6.23;;;11.30;1.00;;;;;;5046999;28;20452;-63
2022/11/25 12:15:08;;;;;;;9.10;6.83;;;11.30;1.00;;;;;;5045232;28;20664;-64
2022/11/25 12:17:44;;;;;;;8.23;7.27;;;11.30;1.00;;;;;;5050728;28;20409;-63
2022/11/25 12:20:45;;;;;;;9.80;7.30;;;11.40;1.00;;;;;;5049260;28;20427;-63
2022/11/25 12:23:55;;;;;;;11.93;7.93;;;11.40;1.00;;;;;;5036918;28;20461;-62
2022/11/25 12:26:29;;;;;;;12.67;8.10;;;11.40;1.00;;;;;;5033737;28;20433;-64
2022/11/25 12:29:00;;;;;;;8.77;7.67;;;11.40;1.00;;;;;;5049277;28;20417;-63
2022/11/25 12:31:52;;;;;;;8.73;7.53;;;11.30;1.00;;;;;;5050797;28;20796;-63
2022/11/25 12:34:36;;;;;;;10.77;7.63;;;11.40;1.00;;;;;;5049799;28;20516;-65
2022/11/25 12:37:16;;;;;;;11.27;7.20;;;11.30;1.00;;;;;;5042114;28;20624;-65
2022/11/25 12:39:54;;;;;;;9.13;7.57;;;11.40;1.00;;;;;;5048441;28;20440;-64
2022/11/25 12:42:24;;;;;;;11.37;8.00;;;11.40;1.00;;;;;;5048281;28;20454;-63
2022/11/25 12:45:19;;;;;;;9.17;6.90;;;11.50;1.00;;;;;;5043979;28;20422;-64
2022/11/25 12:47:45;;;;;;;8.17;6.63;;;;;;;;;;5046365;28;20889;-64
2022/11/25 12:50:25;;;;;;;10.67;8.50;;;11.50;1.00;;;;;;5048040;28;20439;-65
2022/11/25 12:53:00;;;;;;;15.70;7.73;;;11.50;1.00;;;;;;5047039;28;20456;-64
2022/11/25 12:55:27;;;;;;;9.47;6.90;;;11.50;1.00;;;;;;5043059;28;20471;-65
2022/11/25 12:58:34;;;;;;;9.33;8.30;;;11.50;1.00;;;;;;5046165;28;20443;-64
2022/11/25 13:01:02;;;;;;;11.73;8.00;;;11.50;1.00;;;;;;5047262;28;20443;-64
2022/11/25 13:03:34;;;;;;;12.20;7.83;;;11.40;1.00;;;;;;5048254;28;20446;-64
2022/11/25 13:06:37;;;;;;;11.30;8.10;;;11.40;1.00;;;;;;5042267;28;20455;-63
2022/11/25 13:09:35;;;;;;;11.83;7.87;;;11.40;1.00;;;;;;5046725;28;20932;-66
2022/11/25 13:12:28;;;;;;;9.67;7.70;;;11.40;1.00;;;;;;5030065;28;20454;-65
2022/11/25 13:15:40;;;;;;;10.67;8.50;;;11.50;1.00;;;;;;5045484;28;20814;-64
2022/11/25 13:18:16;;;;;;;9.90;7.53;;;11.60;1.00;;;;;;5048092;28;20480;-64
2022/11/25 13:20:50;;;;;;;13.00;8.07;;;11.60;1.00;;;;;;5049640;28;20431;-64